Route Details

Aircraft Information
Group: European Fleet
Types: A30F, A31F, B738
Route Data
Distance: 522nm
Duration: 1h 25m
Origin METAR: EPWA 080000Z 30004KT 9999 FEW016 BKN037 M01/M03 Q1042 NOSIG
Dest. METAR: EDDK 072350Z AUTO VRB01KT CAVOK M03/M07 Q1039 NOSIG
Freight Data
(for Feb 8, 2023)
Load Factor:
109%
Manifested Cargo: 81,488lbs
Financial History
Total Freight: 170,606lbs
Average Load: 0lbs/flt
Fuel Used: 68,542lbs
Avg. Fuel Used: 0lbs/flt
Fuel Expense: $40,134
Avg. Fuel Expense: $0
Avg. Fuel Cost: $0/lbs
Total Gross Income: $729,696
Pilot Pay: $797
Total Expenses: $131,464
Total Revenue: $556,326
Average Revenue: $0

Capitol Logistics 518




EPWA
Warsaw Chopin Airport
Warsaw, PL
EDDK
Cologne Bonn Airport
Cologne, DE